Time;durP1;ratioP1;P1;durP2;ratioP2;P2;SDS_P1;SDS_P2;PMS_P1;PMS_P2;Temp;Humidity;BMP_temperature;BMP_pressure;BME280_temperature;BME280_humidity;BME280_pressure;Samples;Min_cycle;Max_cycle;Signal;HPM_P1;HPM_P2
2022/07/22 00:01:05;;;;;;;;;22.75;21.75;;;;;24.41;43.48;101489.69;5041901;28;46558;-62
2022/07/22 00:03:31;;;;;;;;;23.50;22.00;;;;;24.36;43.55;101486.44;5042241;28;45333;-62
2022/07/22 00:05:56;;;;;;;;;31.00;27.00;;;;;24.35;43.37;101493.59;5047396;28;45271;-62
2022/07/22 00:08:22;;;;;;;;;28.00;26.25;;;;;24.33;43.35;101482.09;5062503;28;45284;-61
2022/07/22 00:10:48;;;;;;;;;30.00;27.00;;;;;24.30;43.70;101479.59;5043815;28;45557;-61
2022/07/22 00:13:13;;;;;;;;;26.50;25.25;;;;;24.27;43.71;101482.47;5044026;28;45520;-61
2022/07/22 00:15:38;;;;;;;;;29.75;26.50;;;;;24.24;43.58;101474.59;5061830;28;45443;-61
2022/07/22 00:18:04;;;;;;;;;26.25;25.25;;;;;24.21;43.65;101477.47;5050203;28;45242;-61
2022/07/22 00:20:30;;;;;;;;;28.75;27.25;;;;;24.15;43.74;101473.31;5041770;28;45301;-61
2022/07/22 00:22:55;;;;;;;;;26.00;25.00;;;;;24.14;44.04;101475.16;5041830;28;45381;-61
2022/07/22 00:25:20;;;;;;;;;29.50;26.75;;;;;24.11;43.68;101474.47;5041753;28;45328;-61
2022/07/22 00:27:46;;;;;;;;;27.75;26.00;;;;;24.08;43.89;101472.84;5041970;28;45325;-61
2022/07/22 00:30:12;;;;;;;;;27.00;24.50;;;;;24.04;43.87;101467.72;5041471;28;45490;-61
2022/07/22 00:32:37;;;;;;;;;27.25;26.25;;;;;24.02;44.13;101466.03;5041631;28;45297;-61
2022/07/22 00:35:03;;;;;;;;;26.75;25.75;;;;;24.01;44.58;101469.66;5041687;28;45293;-61
2022/07/22 00:37:29;;;;;;;;;29.75;26.25;;;;;23.98;43.93;101464.47;5041920;28;45238;-61
2022/07/22 00:39:54;;;;;;;;;31.25;25.25;;;;;23.94;44.22;101462.06;5023512;28;45476;-62
2022/07/22 00:42:19;;;;;;;;;28.50;24.75;;;;;23.92;44.38;101462.13;5041528;28;45214;-61
2022/07/22 00:44:45;;;;;;;;;29.75;29.00;;;;;23.89;44.28;101459.63;5041144;28;45285;-62
2022/07/22 00:47:11;;;;;;;;;33.50;28.75;;;;;23.86;44.35;101465.16;5041482;28;45186;-61
2022/07/22 00:49:36;;;;;;;;;26.75;24.00;;;;;23.82;44.18;101458.25;5041392;28;45572;-61
2022/07/22 00:52:02;;;;;;;;;28.50;26.50;;;;;23.80;44.52;101452.13;5041181;28;46090;-61
2022/07/22 00:54:28;;;;;;;;;24.25;22.50;;;;;23.75;44.46;101456.88;5041381;28;45261;-61
2022/07/22 00:56:54;;;;;;;;;26.50;23.00;;;;;23.73;44.45;101445.38;5041501;28;45594;-61
2022/07/22 00:59:20;;;;;;;;;30.00;27.50;;;;;23.70;44.54;101443.75;5040869;28;45489;-61
2022/07/22 01:01:46;;;;;;;;;27.50;26.25;;;;;23.66;44.65;101440.38;5040923;28;45959;-61
2022/07/22 01:04:12;;;;;;;;;22.75;22.75;;;;;23.60;44.74;101440.72;5041125;28;45384;-61
2022/07/22 01:06:37;;;;;;;;;28.00;25.00;;;;;23.58;44.35;101442.63;5041386;28;45427;-61
2022/07/22 01:09:04;;;;;;;;;26.50;24.75;;;;;23.56;44.42;101443.66;5040966;28;45301;-61
2022/07/22 01:11:30;;;;;;;;;18.25;15.75;;;;;23.52;44.83;101443.88;5040094;28;45283;-61
2022/07/22 01:13:56;;;;;;;;;29.25;28.00;;;;;23.50;44.76;101444.91;5040177;28;45266;-61
2022/07/22 01:16:22;;;;;;;;;25.75;24.50;;;;;23.47;44.79;101445.94;5051785;28;45210;-62
2022/07/22 01:18:48;;;;;;;;;27.50;26.25;;;;;23.44;44.54;101443.44;5043418;28;45404;-61
2022/07/22 01:21:15;;;;;;;;;26.25;24.75;;;;;23.41;44.82;101435.56;5022842;28;46912;-61
2022/07/22 01:23:40;;;;;;;;;23.75;20.00;;;;;23.40;44.76;101433.84;5040892;28;46434;-61
2022/07/22 01:26:06;;;;;;;;;26.00;25.25;;;;;23.36;45.02;101441.19;5041000;28;45329;-61
2022/07/22 01:28:32;;;;;;;;;25.50;23.00;;;;;23.34;45.16;101428.81;5040727;28;45254;-61
2022/07/22 01:30:58;;;;;;;;;24.25;21.75;;;;;23.33;44.98;101427.09;5040410;28;46407;-62
2022/07/22 01:33:24;;;;;;;;;24.75;23.50;;;;;23.29;44.93;101430.91;5040650;28;45233;-61
2022/07/22 01:35:51;;;;;;;;;23.00;22.00;;;;;23.25;44.84;101432.91;5040860;28;45396;-62
2022/07/22 01:38:16;;;;;;;;;27.75;25.50;;;;;23.24;45.34;101431.16;5040574;28;45259;-61
2022/07/22 01:40:44;;;;;;;;;23.00;20.75;;;;;23.21;45.28;101434.03;5040382;28;46193;-61
2022/07/22 01:43:10;;;;;;;;;24.75;22.50;;;;;23.17;44.88;101433.34;5040650;28;45515;-61
2022/07/22 01:45:35;;;;;;;;;21.25;20.50;;;;;23.15;45.33;101429.88;5040512;28;45316;-61
2022/07/22 01:48:01;;;;;;;;;23.75;21.75;;;;;23.13;45.30;101429.06;5040233;28;45510;-61
2022/07/22 01:50:27;;;;;;;;;25.75;20.00;;;;;23.09;45.22;101427.50;5040216;28;45396;-61
2022/07/22 01:52:52;;;;;;;;;22.75;20.75;;;;;23.08;45.20;101430.28;5040407;28;45451;-61
2022/07/22 01:55:18;;;;;;;;;24.75;22.50;;;;;22.97;45.28;101418.34;5040672;28;45637;-61
2022/07/22 01:57:43;;;;;;;;;29.00;21.50;;;;;22.96;45.36;101421.97;5040161;28;45233;-61
2022/07/22 02:00:10;;;;;;;;;22.25;20.25;;;;;22.99;45.40;101426.28;5040099;28;45816;-61
2022/07/22 02:02:35;;;;;;;;;21.75;19.75;;;;;22.97;45.30;101422.84;5022204;28;45298;-60
2022/07/22 02:05:03;;;;;;;;;22.75;22.75;;;;;22.94;45.67;101420.31;5040277;28;45351;-60
2022/07/22 02:07:28;;;;;;;;;23.75;20.50;;;;;22.90;45.78;101419.63;5058327;28;45452;-60
2022/07/22 02:09:54;;;;;;;;;25.50;23.25;;;;;22.88;45.53;101416.19;5042131;28;46993;-60
2022/07/22 02:12:20;;;;;;;;;21.25;19.00;;;;;22.84;45.81;101419.97;5060087;28;45311;-59
2022/07/22 02:14:46;;;;;;;;;25.00;24.25;;;;;22.84;45.75;101423.53;5060148;28;45352;-59
2022/07/22 02:17:11;;;;;;;;;21.50;20.50;;;;;22.82;45.88;101424.56;5025313;28;45385;-59
2022/07/22 02:19:37;;;;;;;;;20.25;18.75;;;;;22.80;45.76;101421.09;5060078;28;45378;-59
2022/07/22 02:22:02;;;;;;;;;21.50;20.50;;;;;22.78;45.37;101412.25;5042002;28;45325;-59
2022/07/22 02:24:27;;;;;;;;;25.25;22.25;;;;;22.76;46.04;101408.81;5060313;28;45554;-59
2022/07/22 02:26:53;;;;;;;;;22.50;21.00;;;;;22.73;45.78;101413.38;5060024;28;45221;-59
2022/07/22 02:29:18;;;;;;;;;19.25;18.00;;;;;22.70;45.66;101416.25;5059770;28;45218;-59
2022/07/22 02:31:44;;;;;;;;;18.50;17.00;;;;;22.67;46.02;101416.41;5059628;28;45253;-59
2022/07/22 02:34:09;;;;;;;;;23.00;21.00;;;;;22.64;46.23;101410.34;5060300;28;45428;-59
2022/07/22 02:36:35;;;;;;;;;22.75;20.50;;;;;22.62;46.34;101421.16;5059843;28;45225;-60
2022/07/22 02:39:00;;;;;;;;;23.50;20.50;;;;;22.60;45.72;101417.66;5059844;28;46001;-60
2022/07/22 02:41:26;;;;;;;;;20.00;17.25;;;;;22.55;45.80;101423.31;5059931;28;45243;-60
2022/07/22 02:43:53;;;;;;;;;20.75;18.25;;;;;22.55;45.78;101422.41;5059806;28;45330;-60
2022/07/22 02:46:25;;;;;;;;;22.00;20.25;;;;;22.50;46.10;101429.84;5059555;28;45479;-61
2022/07/22 02:48:51;;;;;;;;;24.50;21.00;;;;;22.46;46.14;101421.09;5059790;28;45463;-61
2022/07/22 02:51:16;;;;;;;;;20.25;19.75;;;;;22.44;46.02;101423.00;5041269;28;45468;-61
2022/07/22 02:53:42;;;;;;;;;22.00;18.50;;;;;22.43;46.02;101420.38;5042031;28;45254;-61
2022/07/22 02:56:08;;;;;;;;;19.50;17.00;;;;;22.42;46.16;101421.38;5059822;28;45331;-61
2022/07/22 02:58:33;;;;;;;;;19.00;19.00;;;;;22.38;46.50;101418.84;5059381;28;45890;-61
2022/07/22 03:00:58;;;;;;;;;25.25;21.50;;;;;22.37;45.91;101424.28;5059347;28;45377;-60
2022/07/22 03:03:24;;;;;;;;;22.50;21.25;;;;;22.35;46.25;101412.75;5053936;28;45747;-60
2022/07/22 03:05:49;;;;;;;;;19.50;18.50;;;;;22.33;46.54;101407.47;5038775;28;45332;-60
2022/07/22 03:08:15;;;;;;;;;23.75;21.50;;;;;22.32;45.94;101415.59;5048584;28;45337;-59
2022/07/22 03:10:41;;;;;;;;;19.50;18.50;;;;;22.22;46.15;101402.69;5039130;28;45557;-59
2022/07/22 03:13:06;;;;;;;;;21.75;18.50;;;;;22.29;46.52;101415.75;5039742;28;45369;-59
2022/07/22 03:15:32;;;;;;;;;19.00;17.25;;;;;22.27;46.10;101407.81;5042796;28;45278;-59
2022/07/22 03:17:57;;;;;;;;;22.00;17.00;;;;;22.26;46.66;101413.25;5037792;28;48576;-59
2022/07/22 03:20:23;;;;;;;;;20.25;20.25;;;;;22.24;46.27;101414.19;5039242;28;45297;-59
2022/07/22 03:22:48;;;;;;;;;21.00;18.25;;;;;22.24;46.45;101407.97;5039465;28;45229;-58
2022/07/22 03:25:14;;;;;;;;;19.50;15.75;;;;;22.22;46.45;101407.19;5039185;28;45488;-58
2022/07/22 03:27:39;;;;;;;;;20.50;17.50;;;;;22.21;46.86;101414.34;5039256;28;46057;-58
2022/07/22 03:30:06;;;;;;;;;17.00;15.75;;;;;22.17;46.62;101411.91;5038789;28;45369;-58
2022/07/22 03:32:31;;;;;;;;;20.50;18.00;;;;;22.14;46.80;101404.91;5039153;28;45266;-58
2022/07/22 03:34:57;;;;;;;;;21.75;19.50;;;;;22.13;46.50;101407.69;5040924;28;45360;-58
2022/07/22 03:37:22;;;;;;;;;20.50;18.25;;;;;22.08;46.62;101413.25;5042476;28;46112;-58
2022/07/22 03:39:48;;;;;;;;;19.75;17.00;;;;;22.07;46.66;101406.16;5042509;28;45728;-58
2022/07/22 03:42:13;;;;;;;;;22.25;20.25;;;;;22.05;46.51;101413.44;5042678;28;45348;-59
2022/07/22 03:44:39;;;;;;;;;19.50;19.50;;;;;22.02;46.73;101398.38;5042238;28;45444;-59
2022/07/22 03:47:04;;;;;;;;;22.50;21.25;;;;;22.00;46.64;101397.59;5042161;28;45924;-60
2022/07/22 03:49:31;;;;;;;;;20.25;17.25;;;;;21.98;46.91;101402.16;5042550;28;45289;-60
2022/07/22 03:51:56;;;;;;;;;20.00;16.25;;;;;21.96;47.01;101398.72;5042306;28;45340;-60
2022/07/22 03:54:21;;;;;;;;;18.75;17.25;;;;;21.94;46.73;101400.59;5042127;28;45603;-60
2022/07/22 03:56:47;;;;;;;;;18.25;17.00;;;;;21.91;46.39;101396.28;5042293;28;45364;-60
2022/07/22 03:59:12;;;;;;;;;18.50;17.50;;;;;21.90;46.74;101397.22;5041835;28;45327;-60
2022/07/22 04:01:37;;;;;;;;;18.25;17.50;;;;;21.89;46.45;101399.97;5042435;28;45353;-61
2022/07/22 04:04:04;;;;;;;;;22.50;19.00;;;;;21.89;46.75;101403.50;5042225;28;45417;-60
2022/07/22 04:06:29;;;;;;;;;17.25;15.50;;;;;21.87;47.15;101393.81;5051981;28;46529;-61
2022/07/22 04:08:54;;;;;;;;;17.25;15.75;;;;;21.85;46.92;101395.75;5062095;28;45220;-61
2022/07/22 04:11:20;;;;;;;;;15.00;14.75;;;;;21.85;46.66;101396.59;5062343;28;45705;-60
2022/07/22 04:13:46;;;;;;;;;22.25;17.75;;;;;21.83;46.95;101401.13;5061872;28;45594;-61
2022/07/22 04:16:11;;;;;;;;;18.50;16.00;;;;;21.80;47.20;101390.63;5061968;28;45364;-60
2022/07/22 04:18:36;;;;;;;;;19.50;18.00;;;;;21.79;46.72;101396.06;5045306;28;45274;-60
2022/07/22 04:21:02;;;;;;;;;20.75;17.00;;;;;21.78;46.69;101400.50;5024104;28;45239;-60
2022/07/22 04:23:27;;;;;;;;;18.50;17.75;;;;;21.75;46.79;101390.00;5041830;28;45432;-60
2022/07/22 04:25:53;;;;;;;;;10.75;9.75;;;;;21.72;47.05;101385.66;5023860;28;45972;-60
2022/07/22 04:28:18;;;;;;;;;17.75;16.50;;;;;21.69;47.39;101388.47;5041525;28;45472;-59
2022/07/22 04:30:44;;;;;;;;;16.00;14.50;;;;;21.67;46.92;101393.06;5041779;28;45378;-58
2022/07/22 04:33:09;;;;;;;;;17.50;17.25;;;;;21.67;47.16;101386.81;5041585;28;45533;-58
2022/07/22 04:35:35;;;;;;;;;15.25;13.75;;;;;21.66;47.28;101391.31;5041805;28;45510;-58
2022/07/22 04:38:00;;;;;;;;;16.00;16.00;;;;;21.66;47.36;101387.75;5023771;28;45401;-58
2022/07/22 04:40:26;;;;;;;;;19.75;19.00;;;;;21.66;46.84;101380.63;5041824;28;45243;-58
2022/07/22 04:42:51;;;;;;;;;17.75;17.00;;;;;21.63;46.79;101377.22;5041545;28;45467;-58
2022/07/22 04:45:16;;;;;;;;;21.00;19.25;;;;;21.62;47.06;101373.69;5040730;28;46043;-59
2022/07/22 04:47:42;;;;;;;;;20.75;18.25;;;;;21.62;46.82;101378.16;5040855;28;45322;-58
2022/07/22 04:50:07;;;;;;;;;21.25;21.00;;;;;21.62;47.47;101378.16;5041475;28;45371;-58
2022/07/22 04:52:33;;;;;;;;;18.25;18.00;;;;;21.59;47.10;101382.72;5041241;28;45502;-58
2022/07/22 04:54:58;;;;;;;;;19.00;16.00;;;;;21.58;47.27;101373.00;5023583;28;45372;-58
2022/07/22 04:57:25;;;;;;;;;18.25;18.25;;;;;21.56;47.29;101379.38;5041235;28;45317;-58
2022/07/22 04:59:51;;;;;;;;;16.75;16.75;;;;;21.55;47.04;101380.25;5019730;28;45594;-58
2022/07/22 05:02:16;;;;;;;;;19.00;18.25;;;;;21.55;47.42;101375.81;5021189;28;45548;-58
2022/07/22 05:04:41;;;;;;;;;19.25;16.25;;;;;21.55;47.00;101382.94;5021214;28;45341;-60
2022/07/22 05:07:07;;;;;;;;;17.50;15.50;;;;;21.53;47.55;101372.31;5036171;28;45435;-60
2022/07/22 05:09:33;;;;;;;;;20.50;15.25;;;;;21.55;47.03;101373.13;5041291;28;45404;-60
2022/07/22 05:11:59;;;;;;;;;17.00;15.75;;;;;21.53;47.07;101366.94;5040901;28;45284;-60
2022/07/22 05:14:24;;;;;;;;;21.25;19.25;;;;;21.54;47.68;101368.69;5040913;28;45316;-60
2022/07/22 05:16:49;;;;;;;;;14.25;13.25;;;;;21.54;47.50;101365.16;5026378;28;45378;-60
2022/07/22 05:19:15;;;;;;;;;13.75;13.75;;;;;21.55;47.01;101370.47;5021402;28;45452;-60
2022/07/22 05:21:40;;;;;;;;;18.00;14.50;;;;;21.55;47.01;101373.13;5021048;28;45276;-60
2022/07/22 05:24:05;;;;;;;;;17.25;14.25;;;;;21.56;47.54;101366.00;5021078;28;45289;-60
2022/07/22 05:26:33;;;;;;;;;23.25;16.25;;;;;21.55;47.17;101365.09;5020558;28;45316;-60
2022/07/22 05:28:58;;;;;;;;;15.50;15.25;;;;;21.56;47.45;101372.19;5021092;28;45780;-60
2022/07/22 05:31:23;;;;;;;;;18.25;16.75;;;;;21.54;47.16;101366.00;5020530;28;45502;-60
2022/07/22 05:33:49;;;;;;;;;16.00;14.25;;;;;21.56;47.79;101368.66;5020836;28;45257;-60
2022/07/22 05:36:14;;;;;;;;;15.25;14.50;;;;;21.59;47.62;101368.50;5020896;28;45214;-59
2022/07/22 05:38:39;;;;;;;;;15.50;14.25;;;;;21.62;47.42;101372.81;5020959;28;45168;-58
2022/07/22 05:41:05;;;;;;;;;19.00;16.25;;;;;21.63;47.47;101367.38;5020714;28;45584;-58
2022/07/22 05:43:31;;;;;;;;;18.00;16.25;;;;;21.66;47.60;101369.94;5020483;28;46093;-58
2022/07/22 05:45:56;;;;;;;;;18.00;15.75;;;;;21.67;47.13;101369.00;5020370;28;45364;-56
2022/07/22 05:48:21;;;;;;;;;18.75;17.25;;;;;21.69;47.42;101367.06;5020813;28;45224;-57
2022/07/22 05:50:47;;;;;;;;;15.75;15.25;;;;;21.72;47.75;101363.38;5023643;28;45584;-55
2022/07/22 05:53:12;;;;;;;;;14.50;14.25;;;;;21.73;47.48;101357.94;5025217;28;45261;-56
2022/07/22 05:55:37;;;;;;;;;19.00;15.50;;;;;21.74;47.36;101348.13;5028051;28;45430;-56
2022/07/22 05:58:03;;;;;;;;;18.50;16.50;;;;;21.77;47.40;101353.31;5031605;28;45263;-56
2022/07/22 06:00:28;;;;;;;;;22.00;17.00;;;;;21.80;47.60;101352.28;5040456;28;45384;-55
2022/07/22 06:02:54;;;;;;;;;19.50;17.25;;;;;21.81;47.92;101348.66;5054761;28;46034;-56
2022/07/22 06:05:19;;;;;;;;;20.25;16.00;;;;;21.85;47.56;101348.44;5050036;28;45361;-56
2022/07/22 06:07:45;;;;;;;;;15.50;13.75;;;;;21.88;47.38;101358.13;5055622;28;45473;-55
2022/07/22 06:10:10;;;;;;;;;19.25;17.00;;;;;21.91;47.74;101348.13;5050112;28;45330;-53
2022/07/22 06:12:36;;;;;;;;;18.50;18.50;;;;;21.95;47.47;101350.63;5053364;28;46397;-55
2022/07/22 06:15:01;;;;;;;;;20.75;17.00;;;;;21.95;47.36;101339.91;5050121;28;45431;-57
2022/07/22 06:17:27;;;;;;;;;20.50;17.75;;;;;21.99;47.24;101347.72;5046187;28;45305;-54
2022/07/22 06:19:52;;;;;;;;;18.00;18.00;;;;;22.02;47.38;101346.69;5049947;28;45383;-57
2022/07/22 06:22:18;;;;;;;;;19.25;16.50;;;;;22.06;47.71;101351.81;5053033;28;45299;-58
2022/07/22 06:24:44;;;;;;;;;22.00;16.75;;;;;22.08;47.50;101360.59;5040154;28;45456;-59
2022/07/22 06:27:10;;;;;;;;;18.00;15.25;;;;;22.13;47.49;101364.84;5053317;28;45301;-59
2022/07/22 06:29:35;;;;;;;;;15.25;13.25;;;;;22.16;47.70;101365.56;5043329;28;45235;-59
2022/07/22 06:32:01;;;;;;;;;19.00;16.75;;;;;22.21;47.40;101368.84;5057663;28;47342;-59
2022/07/22 06:34:26;;;;;;;;;19.75;17.00;;;;;22.26;47.64;101357.88;5049775;28;45536;-60
2022/07/22 06:36:52;;;;;;;;;16.50;15.50;;;;;22.31;47.92;101363.00;5046423;28;45234;-60
2022/07/22 06:39:17;;;;;;;;;17.25;15.75;;;;;22.36;47.76;101360.94;5035082;28;45569;-61
2022/07/22 06:41:43;;;;;;;;;18.25;17.00;;;;;22.40;47.51;101355.38;5052720;28;46062;-61
2022/07/22 06:44:08;;;;;;;;;20.00;18.00;;;;;22.46;47.99;101366.69;5049700;28;45434;-60
2022/07/22 06:46:33;;;;;;;;;22.25;18.75;;;;;22.49;47.93;101359.38;5046130;28;45522;-60
2022/07/22 06:48:59;;;;;;;;;17.25;16.25;;;;;22.52;47.55;101361.84;5049027;28;45308;-60
2022/07/22 06:51:24;;;;;;;;;20.25;19.00;;;;;22.55;47.43;101347.44;5036444;28;46192;-60
2022/07/22 06:53:49;;;;;;;;;18.00;15.50;;;;;22.58;47.76;101351.75;5059761;28;45333;-60
2022/07/22 06:56:15;;;;;;;;;19.25;16.75;;;;;22.60;47.69;101356.06;5043620;28;45611;-61
2022/07/22 06:58:40;;;;;;;;;18.50;17.75;;;;;22.64;47.54;101367.50;5039231;28;45313;-61
2022/07/22 07:01:05;;;;;;;;;19.00;17.25;;;;;22.64;47.76;101368.38;5039164;28;45345;-61
2022/07/22 07:03:31;;;;;;;;;19.00;17.25;;;;;22.69;47.17;101363.63;5045911;28;45326;-61
2022/07/22 07:05:56;;;;;;;;;18.50;18.50;;;;;22.69;47.26;101360.06;5046145;28;45342;-61
2022/07/22 07:08:22;;;;;;;;;20.50;17.00;;;;;22.73;47.64;101367.84;5039816;28;45242;-60
2022/07/22 07:10:48;;;;;;;;;19.25;18.00;;;;;22.78;47.42;101369.41;5042230;28;46022;-61
2022/07/22 07:13:13;;;;;;;;;21.75;19.50;;;;;22.79;47.16;101368.44;5043012;28;45414;-61
2022/07/22 07:15:39;;;;;;;;;22.50;20.25;;;;;22.84;47.54;101375.31;5042950;28;45310;-61
2022/07/22 07:18:04;;;;;;;;;18.00;18.00;;;;;22.88;47.75;101370.63;5042846;28;45241;-61
2022/07/22 07:20:29;;;;;;;;;21.25;18.25;;;;;22.93;47.54;101370.34;5046823;28;46410;-60
2022/07/22 07:22:55;;;;;;;;;19.75;16.50;;;;;22.98;47.31;101361.13;5065178;28;45215;-61
2022/07/22 07:25:21;;;;;;;;;18.75;14.75;;;;;23.01;47.65;101352.88;5042685;28;45314;-61
2022/07/22 07:27:46;;;;;;;;;22.25;18.25;;;;;23.05;47.51;101359.78;5042833;28;45204;-61
2022/07/22 07:30:12;;;;;;;;;18.25;17.25;;;;;23.10;47.58;101361.38;5042259;28;45373;-61
2022/07/22 07:32:38;;;;;;;;;18.50;16.25;;;;;23.12;47.76;101354.09;5024728;28;45355;-61
2022/07/22 07:35:05;;;;;;;;;21.50;18.50;;;;;23.15;47.42;101361.97;5042790;28;45257;-61
2022/07/22 07:37:31;;;;;;;;;22.25;17.75;;;;;23.19;47.51;101358.19;5042550;28;45258;-61
2022/07/22 07:39:59;;;;;;;;;18.75;17.75;;;;;23.23;47.52;101358.88;5041265;28;45304;-61
2022/07/22 07:42:25;;;;;;;;;19.25;17.75;;;;;23.27;47.45;101350.56;5042547;28;45253;-61
2022/07/22 07:44:50;;;;;;;;;19.25;18.75;;;;;23.34;47.32;101362.66;5042349;28;45318;-61
2022/07/22 07:47:18;;;;;;;;;19.75;17.25;;;;;23.40;47.44;101356.06;5042306;28;45222;-61
2022/07/22 07:49:44;;;;;;;;;22.00;18.00;;;;;23.46;47.38;101354.84;5044772;28;47515;-61
2022/07/22 07:52:12;;;;;;;;;15.00;15.00;;;;;23.51;47.55;101356.31;5055696;28;45321;-61
2022/07/22 07:54:38;;;;;;;;;24.50;22.50;;;;;23.58;47.43;101359.47;5041520;28;45300;-61
2022/07/22 07:57:05;;;;;;;;;19.75;18.75;;;;;23.65;47.28;101362.69;5051138;28;46038;-61
2022/07/22 07:59:30;;;;;;;;;21.00;17.50;;;;;23.70;47.31;101369.47;5043981;28;46223;-61
2022/07/22 08:01:56;;;;;;;;;16.25;15.75;;;;;23.76;47.29;101372.75;5060445;28;45327;-61
2022/07/22 08:04:21;;;;;;;;;20.50;20.50;;;;;23.81;47.57;101371.53;5046656;28;45151;-61
2022/07/22 08:06:46;;;;;;;;;14.50;14.00;;;;;23.89;47.11;101370.22;5042398;28;45142;-61
2022/07/22 08:09:12;;;;;;;;;16.75;15.25;;;;;23.97;47.33;101370.63;5041975;28;46117;-61
2022/07/22 08:11:37;;;;;;;;;21.25;20.25;;;;;24.03;47.38;101372.94;5041913;28;45232;-61
2022/07/22 08:14:02;;;;;;;;;17.50;17.50;;;;;24.07;47.18;101369.09;5041869;28;45302;-61
2022/07/22 08:16:28;;;;;;;;;19.25;17.00;;;;;24.15;47.22;101371.31;5042044;28;45225;-61
2022/07/22 08:18:53;;;;;;;;;22.75;19.25;;;;;24.25;46.97;101368.91;5041905;28;46311;-61
2022/07/22 08:21:18;;;;;;;;;18.00;17.50;;;;;24.31;47.20;101364.06;5041861;28;45379;-61
2022/07/22 08:23:44;;;;;;;;;22.00;18.00;;;;;24.40;47.00;101350.97;5037432;28;45312;-61
2022/07/22 08:26:09;;;;;;;;;15.75;15.75;;;;;24.47;47.32;101352.34;5041958;28;45260;-62
2022/07/22 08:28:35;;;;;;;;;19.75;18.00;;;;;24.55;46.79;101341.94;5041550;28;45459;-61
2022/07/22 08:31:00;;;;;;;;;25.00;20.75;;;;;24.63;46.83;101339.66;5041424;28;45393;-61
2022/07/22 08:33:25;;;;;;;;;20.00;18.00;;;;;24.70;46.83;101336.59;5041844;28;45339;-61
2022/07/22 08:35:51;;;;;;;;;20.00;16.00;;;;;24.78;46.73;101345.88;5041726;28;45316;-61
2022/07/22 08:38:16;;;;;;;;;22.75;18.50;;;;;24.86;46.43;101342.69;5041627;28;45388;-61
2022/07/22 08:40:41;;;;;;;;;25.00;24.75;;;;;24.93;46.79;101340.47;5041571;28;45324;-61
2022/07/22 08:43:07;;;;;;;;;21.75;19.75;;;;;24.99;46.82;101334.69;5040203;28;45787;-61
2022/07/22 08:45:32;;;;;;;;;16.50;15.75;;;;;25.06;46.77;101335.16;5041587;28;45519;-61
2022/07/22 08:47:59;;;;;;;;;22.00;21.25;;;;;25.13;46.62;101340.03;5041233;28;45973;-61
2022/07/22 08:50:25;;;;;;;;;19.67;19.67;;;;;25.18;46.29;101339.69;5041177;28;45164;-61
2022/07/22 08:52:50;;;;;;;;;20.50;17.25;;;;;25.25;46.28;101337.47;5061631;28;45546;-61
2022/07/22 08:55:16;;;;;;;;;18.25;18.25;;;;;25.31;46.70;101337.06;5061591;28;45233;-61
2022/07/22 08:57:46;;;;;;;;;18.25;14.75;;;;;25.38;46.61;101327.63;5061289;28;45252;-61
2022/07/22 09:00:14;;;;;;;;;19.50;18.75;;;;;25.43;46.81;101320.13;5061110;28;45340;-61
2022/07/22 09:02:40;;;;;;;;;17.50;16.00;;;;;25.54;46.60;101315.84;5053805;28;45292;-61
2022/07/22 09:05:08;;;;;;;;;24.25;20.50;;;;;25.59;46.66;101295.72;5041050;28;45526;-61
2022/07/22 09:07:43;;;;;;;;;19.25;18.00;;;;;25.70;46.63;101286.91;5041155;28;46360;-61
2022/07/22 09:10:12;;;;;;;;;18.00;17.50;;;;;25.78;46.05;101275.59;5023169;28;45294;-61
2022/07/22 09:12:59;;;;;;;;;19.75;16.75;;;;;25.88;45.90;101283.91;5041146;28;45423;-61
2022/07/22 09:15:39;;;;;;;;;20.00;17.00;;;;;25.95;46.38;101261.81;5041029;28;45353;-61
2022/07/22 09:18:05;;;;;;;;;21.50;16.50;;;;;26.03;46.29;101265.78;5022814;28;46073;-61
2022/07/22 09:20:31;;;;;;;;;21.50;20.75;;;;;26.11;46.14;101279.59;5040801;28;45491;-61
2022/07/22 09:22:57;;;;;;;;;19.75;18.00;;;;;26.18;45.78;101291.66;5040906;28;45383;-61
2022/07/22 09:25:34;;;;;;;;;19.50;18.00;;;;;26.25;46.16;101300.13;5041042;28;45387;-61
2022/07/22 09:28:05;;;;;;;;;25.00;21.00;;;;;26.33;45.48;101296.91;5040648;28;46416;-61
2022/07/22 09:30:32;;;;;;;;;21.25;20.50;;;;;26.39;45.52;101305.41;5040664;28;45321;-61
2022/07/22 09:32:57;;;;;;;;;21.75;18.75;;;;;26.46;45.84;101315.75;5040123;28;45444;-61
2022/07/22 09:35:24;;;;;;;;;24.75;21.00;;;;;26.54;45.62;101322.28;5038076;28;45615;-61
2022/07/22 09:37:56;;;;;;;;;19.25;18.00;;;;;26.64;45.63;101327.88;5044739;28;47174;-61
2022/07/22 09:40:23;;;;;;;;;16.25;16.25;;;;;26.71;45.40;101323.75;5040683;28;45365;-61
2022/07/22 09:42:57;;;;;;;;;20.50;18.75;;;;;26.80;45.45;101322.22;5040640;28;45305;-61
2022/07/22 09:45:24;;;;;;;;;24.00;18.50;;;;;26.86;45.78;101308.31;5040542;28;45329;-61
2022/07/22 09:47:50;;;;;;;;;20.25;20.25;;;;;26.95;45.44;101292.44;5040294;28;46284;-61
2022/07/22 09:50:17;;;;;;;;;19.50;19.25;;;;;27.02;45.17;101283.75;5040385;28;45369;-61
2022/07/22 09:52:43;;;;;;;;;22.25;22.25;;;;;27.12;45.40;101289.31;5059340;28;45283;-61
2022/07/22 09:55:08;;;;;;;;;21.25;21.00;;;;;27.20;44.96;101289.56;5060638;28;45435;-61
2022/07/22 09:57:34;;;;;;;;;20.25;19.00;;;;;27.31;44.92;101293.28;5042191;28;47393;-61
2022/07/22 10:00:00;;;;;;;;;24.50;21.75;;;;;27.39;44.71;101290.88;5060218;28;45345;-61
2022/07/22 10:02:27;;;;;;;;;23.00;20.50;;;;;27.43;44.55;101286.13;5054896;28;45329;-61
2022/07/22 10:04:55;;;;;;;;;23.50;22.25;;;;;27.52;45.24;101291.69;5040339;28;45313;-61
2022/07/22 10:07:23;;;;;;;;;21.25;20.75;;;;;27.62;44.49;101299.06;5040026;28;46972;-61
2022/07/22 10:09:48;;;;;;;;;21.25;20.50;;;;;27.67;44.70;101300.44;5040260;28;45424;-61
2022/07/22 10:12:15;;;;;;;;;21.25;19.75;;;;;27.70;44.80;101299.31;5040197;28;45633;-61
2022/07/22 10:14:40;;;;;;;;;20.50;18.50;;;;;27.73;44.45;101302.66;5040063;28;45345;-61
2022/07/22 10:17:06;;;;;;;;;18.00;18.00;;;;;27.78;43.94;101291.47;5039973;28;45923;-61
2022/07/22 10:19:31;;;;;;;;;21.00;21.00;;;;;27.76;44.26;101281.78;5022145;28;45489;-61
2022/07/22 10:21:57;;;;;;;;;22.00;20.00;;;;;27.81;44.45;101290.38;5022237;28;45398;-61
2022/07/22 10:24:23;;;;;;;;;19.25;19.25;;;;;27.79;44.60;101281.53;5022368;28;45401;-61
2022/07/22 10:26:51;;;;;;;;;18.75;18.75;;;;;27.83;44.08;101291.13;5040145;28;45629;-61
2022/07/22 10:29:38;;;;;;;;;23.50;22.25;;;;;27.82;44.35;101284.84;5039684;28;45303;-61
2022/07/22 10:32:22;;;;;;;;;14.50;14.25;;;;;27.79;44.13;101268.91;5049656;28;45334;-61
2022/07/22 10:35:00;;;;;;;;;23.75;21.50;;;;;27.75;43.88;101259.31;5059947;28;45229;-61
2022/07/22 10:37:34;;;;;;;;;22.25;21.75;;;;;27.70;43.87;101262.38;5059736;28;46212;-61
2022/07/22 10:40:14;;;;;;;;;18.50;18.50;;;;;27.67;43.75;101264.47;5059921;28;45468;-61
2022/07/22 10:43:06;;;;;;;;;19.75;19.75;;;;;27.62;44.05;101258.56;5041672;28;45416;-61
2022/07/22 10:45:55;;;;;;;;;25.75;21.00;;;;;27.56;43.86;101239.19;5059301;28;45332;-61
2022/07/22 10:48:45;;;;;;;;;20.75;19.00;;;;;27.51;43.74;101206.31;5059953;28;46243;-61
2022/07/22 10:51:25;;;;;;;;;21.50;21.00;;;;;27.47;43.60;101171.56;5041714;28;45327;-61
2022/07/22 10:54:01;;;;;;;;;23.75;22.25;;;;;27.41;44.29;101183.72;5059733;28;45221;-61
2022/07/22 10:56:31;;;;;;;;;27.00;23.75;;;;;27.39;43.42;101186.53;5059629;28;45241;-61
2022/07/22 10:59:14;;;;;;;;;30.25;23.00;;;;;27.36;44.20;101199.38;5058943;28;46923;-61
2022/07/22 11:01:52;;;;;;;;;24.50;20.75;;;;;27.34;44.07;101209.44;5041125;28;45582;-61
2022/07/22 11:04:21;;;;;;;;;23.25;22.00;;;;;27.31;43.71;101207.84;5047358;28;45398;-61
2022/07/22 11:06:52;;;;;;;;;25.75;25.50;;;;;27.24;44.15;101198.50;5059356;28;45525;-61